sensor_id;sensor_type;location;lat;lon;timestamp;P1;durP1;ratioP1;P2;durP2;ratioP2
54557;SDS011;40452;50.080;20.040;2023-05-10T02:40:16;5.25;;;3.28;;
54557;SDS011;40452;50.080;20.040;2023-05-10T02:42:44;5.70;;;3.47;;
54557;SDS011;40452;50.080;20.040;2023-05-10T02:45:13;5.07;;;3.00;;
54557;SDS011;40452;50.080;20.040;2023-05-10T02:50:08;8.27;;;3.28;;
54557;SDS011;40452;50.080;20.040;2023-05-10T02:52:46;5.05;;;3.20;;
54557;SDS011;40452;50.080;20.040;2023-05-10T02:55:14;5.47;;;3.13;;
54557;SDS011;40452;50.080;20.040;2023-05-10T02:57:43;6.93;;;3.22;;
54557;SDS011;40452;50.080;20.040;2023-05-10T03:00:13;13.50;;;3.28;;
54557;SDS011;40452;50.080;20.040;2023-05-10T03:02:39;7.28;;;3.40;;
54557;SDS011;40452;50.080;20.040;2023-05-10T03:05:05;6.28;;;3.10;;
54557;SDS011;40452;50.080;20.040;2023-05-10T03:07:31;7.43;;;2.95;;
54557;SDS011;40452;50.080;20.040;2023-05-10T03:09:58;5.60;;;3.10;;
54557;SDS011;40452;50.080;20.040;2023-05-10T03:12:39;7.13;;;3.00;;
54557;SDS011;40452;50.080;20.040;2023-05-10T03:15:18;5.38;;;2.60;;
54557;SDS011;40452;50.080;20.040;2023-05-10T03:20:41;6.38;;;3.00;;
54557;SDS011;40452;50.080;20.040;2023-05-10T03:25:51;5.18;;;2.50;;
54557;SDS011;40452;50.080;20.040;2023-05-10T03:28:17;11.30;;;2.95;;
54557;SDS011;40452;50.080;20.040;2023-05-10T03:30:43;4.90;;;3.00;;
54557;SDS011;40452;50.080;20.040;2023-05-10T03:33:10;6.78;;;3.00;;
54557;SDS011;40452;50.080;20.040;2023-05-10T03:35:40;7.90;;;3.38;;
54557;SDS011;40452;50.080;20.040;2023-05-10T03:38:05;7.78;;;3.33;;
54557;SDS011;40452;50.080;20.040;2023-05-10T03:40:31;5.97;;;3.92;;
54557;SDS011;40452;50.080;20.040;2023-05-10T03:43:00;8.00;;;3.58;;
54557;SDS011;40452;50.080;20.040;2023-05-10T03:45:25;8.35;;;4.40;;
54557;SDS011;40452;50.080;20.040;2023-05-10T03:47:51;8.73;;;4.97;;
54557;SDS011;40452;50.080;20.040;2023-05-10T03:50:17;7.72;;;4.70;;
54557;SDS011;40452;50.080;20.040;2023-05-10T03:52:45;7.45;;;4.63;;
54557;SDS011;40452;50.080;20.040;2023-05-10T03:55:10;8.93;;;4.30;;
54557;SDS011;40452;50.080;20.040;2023-05-10T03:57:36;7.78;;;4.07;;
54557;SDS011;40452;50.080;20.040;2023-05-10T04:00:02;7.60;;;4.60;;
54557;SDS011;40452;50.080;20.040;2023-05-10T04:02:28;7.93;;;5.10;;
54557;SDS011;40452;50.080;20.040;2023-05-10T04:04:55;8.05;;;4.75;;
54557;SDS011;40452;50.080;20.040;2023-05-10T04:07:21;9.15;;;4.90;;
54557;SDS011;40452;50.080;20.040;2023-05-10T04:09:46;9.85;;;5.50;;
54557;SDS011;40452;50.080;20.040;2023-05-10T04:12:12;7.38;;;5.00;;
54557;SDS011;40452;50.080;20.040;2023-05-10T04:14:37;8.55;;;5.78;;
54557;SDS011;40452;50.080;20.040;2023-05-10T04:17:03;8.32;;;5.60;;
54557;SDS011;40452;50.080;20.040;2023-05-10T04:19:31;10.43;;;5.57;;
54557;SDS011;40452;50.080;20.040;2023-05-10T04:21:57;8.30;;;5.10;;
54557;SDS011;40452;50.080;20.040;2023-05-10T04:24:23;10.82;;;5.35;;
54557;SDS011;40452;50.080;20.040;2023-05-10T04:26:49;8.35;;;5.38;;
54557;SDS011;40452;50.080;20.040;2023-05-10T04:29:14;7.32;;;5.22;;
54557;SDS011;40452;50.080;20.040;2023-05-10T04:31:40;8.82;;;5.50;;
54557;SDS011;40452;50.080;20.040;2023-05-10T04:34:05;8.80;;;5.18;;
54557;SDS011;40452;50.080;20.040;2023-05-10T04:36:31;10.48;;;5.45;;
54557;SDS011;40452;50.080;20.040;2023-05-10T04:38:58;11.77;;;5.10;;
54557;SDS011;40452;50.080;20.040;2023-05-10T04:41:24;7.10;;;5.15;;
54557;SDS011;40452;50.080;20.040;2023-05-10T04:43:50;10.27;;;5.90;;
54557;SDS011;40452;50.080;20.040;2023-05-10T04:46:16;9.38;;;5.32;;
54557;SDS011;40452;50.080;20.040;2023-05-10T04:48:41;7.97;;;5.25;;
54557;SDS011;40452;50.080;20.040;2023-05-10T04:51:07;8.75;;;5.25;;
54557;SDS011;40452;50.080;20.040;2023-05-10T04:53:32;6.63;;;4.90;;
54557;SDS011;40452;50.080;20.040;2023-05-10T04:55:58;6.65;;;4.88;;
54557;SDS011;40452;50.080;20.040;2023-05-10T04:58:23;9.77;;;4.93;;
54557;SDS011;40452;50.080;20.040;2023-05-10T05:00:49;10.88;;;5.45;;
54557;SDS011;40452;50.080;20.040;2023-05-10T05:03:14;16.20;;;5.53;;
54557;SDS011;40452;50.080;20.040;2023-05-10T05:05:40;10.60;;;5.93;;
54557;SDS011;40452;50.080;20.040;2023-05-10T05:08:05;10.40;;;4.85;;
54557;SDS011;40452;50.080;20.040;2023-05-10T05:10:31;10.13;;;5.00;;
54557;SDS011;40452;50.080;20.040;2023-05-10T05:12:57;12.90;;;5.25;;
54557;SDS011;40452;50.080;20.040;2023-05-10T05:15:22;23.27;;;5.53;;
54557;SDS011;40452;50.080;20.040;2023-05-10T05:17:48;18.92;;;6.03;;
54557;SDS011;40452;50.080;20.040;2023-05-10T05:20:13;12.68;;;5.32;;
54557;SDS011;40452;50.080;20.040;2023-05-10T05:22:39;14.10;;;5.78;;
54557;SDS011;40452;50.080;20.040;2023-05-10T05:25:04;17.92;;;6.07;;
54557;SDS011;40452;50.080;20.040;2023-05-10T05:27:30;20.60;;;5.53;;
54557;SDS011;40452;50.080;20.040;2023-05-10T05:29:56;13.70;;;5.50;;
54557;SDS011;40452;50.080;20.040;2023-05-10T05:32:22;17.85;;;5.80;;
54557;SDS011;40452;50.080;20.040;2023-05-10T05:34:49;15.02;;;5.53;;
54557;SDS011;40452;50.080;20.040;2023-05-10T05:37:16;20.98;;;5.60;;
54557;SDS011;40452;50.080;20.040;2023-05-10T05:39:43;17.77;;;5.78;;
54557;SDS011;40452;50.080;20.040;2023-05-10T05:42:09;15.02;;;5.53;;
54557;SDS011;40452;50.080;20.040;2023-05-10T05:44:35;20.48;;;5.97;;
54557;SDS011;40452;50.080;20.040;2023-05-10T12:30:28;5.03;;;2.47;;
54557;SDS011;40452;50.080;20.040;2023-05-10T12:32:59;2.90;;;1.90;;
54557;SDS011;40452;50.080;20.040;2023-05-10T12:35:29;3.95;;;2.20;;
54557;SDS011;40452;50.080;20.040;2023-05-10T12:37:55;3.15;;;2.13;;
54557;SDS011;40452;50.080;20.040;2023-05-10T12:40:20;2.63;;;1.98;;
54557;SDS011;40452;50.080;20.040;2023-05-10T12:42:46;4.78;;;2.00;;
54557;SDS011;40452;50.080;20.040;2023-05-10T12:45:13;2.83;;;2.00;;
54557;SDS011;40452;50.080;20.040;2023-05-10T12:47:39;2.45;;;1.80;;
54557;SDS011;40452;50.080;20.040;2023-05-10T12:50:05;4.13;;;2.03;;
54557;SDS011;40452;50.080;20.040;2023-05-10T12:52:31;3.30;;;2.13;;
54557;SDS011;40452;50.080;20.040;2023-05-10T12:54:57;3.55;;;2.10;;
54557;SDS011;40452;50.080;20.040;2023-05-10T12:57:23;2.85;;;1.90;;
54557;SDS011;40452;50.080;20.040;2023-05-10T12:59:49;2.83;;;1.92;;
54557;SDS011;40452;50.080;20.040;2023-05-10T13:02:15;2.50;;;2.03;;
54557;SDS011;40452;50.080;20.040;2023-05-10T13:04:42;3.47;;;1.80;;
54557;SDS011;40452;50.080;20.040;2023-05-10T13:07:09;3.03;;;2.25;;
54557;SDS011;40452;50.080;20.040;2023-05-10T13:09:37;4.60;;;2.33;;
54557;SDS011;40452;50.080;20.040;2023-05-10T13:12:02;2.90;;;2.08;;
54557;SDS011;40452;50.080;20.040;2023-05-10T13:14:28;2.90;;;2.00;;
54557;SDS011;40452;50.080;20.040;2023-05-10T13:16:54;9.05;;;2.25;;
54557;SDS011;40452;50.080;20.040;2023-05-10T13:19:20;4.07;;;2.13;;
54557;SDS011;40452;50.080;20.040;2023-05-10T13:21:45;5.18;;;2.22;;
54557;SDS011;40452;50.080;20.040;2023-05-10T13:24:11;12.25;;;2.45;;
54557;SDS011;40452;50.080;20.040;2023-05-10T13:26:38;4.40;;;1.90;;
54557;SDS011;40452;50.080;20.040;2023-05-10T13:29:07;5.38;;;2.28;;
54557;SDS011;40452;50.080;20.040;2023-05-10T13:31:33;6.57;;;2.05;;
54557;SDS011;40452;50.080;20.040;2023-05-10T13:33:59;4.20;;;2.25;;
54557;SDS011;40452;50.080;20.040;2023-05-10T13:36:25;5.60;;;2.17;;
54557;SDS011;40452;50.080;20.040;2023-05-10T13:38:51;4.28;;;2.10;;
54557;SDS011;40452;50.080;20.040;2023-05-10T13:41:16;6.82;;;2.20;;
54557;SDS011;40452;50.080;20.040;2023-05-10T13:43:42;3.78;;;2.03;;
54557;SDS011;40452;50.080;20.040;2023-05-10T13:46:08;5.30;;;2.30;;
54557;SDS011;40452;50.080;20.040;2023-05-10T13:48:33;5.55;;;2.40;;
54557;SDS011;40452;50.080;20.040;2023-05-10T13:50:59;4.15;;;1.90;;
54557;SDS011;40452;50.080;20.040;2023-05-10T13:53:24;3.75;;;2.17;;
54557;SDS011;40452;50.080;20.040;2023-05-10T13:55:50;4.65;;;2.22;;
54557;SDS011;40452;50.080;20.040;2023-05-10T13:58:15;5.57;;;2.08;;
54557;SDS011;40452;50.080;20.040;2023-05-10T14:00:41;4.32;;;1.77;;
54557;SDS011;40452;50.080;20.040;2023-05-10T14:03:07;4.72;;;2.20;;
54557;SDS011;40452;50.080;20.040;2023-05-10T14:05:34;6.88;;;2.08;;
54557;SDS011;40452;50.080;20.040;2023-05-10T14:07:59;5.00;;;2.00;;
54557;SDS011;40452;50.080;20.040;2023-05-10T14:10:25;5.93;;;2.00;;
54557;SDS011;40452;50.080;20.040;2023-05-10T14:12:50;4.40;;;1.77;;
54557;SDS011;40452;50.080;20.040;2023-05-10T14:15:16;3.03;;;1.90;;
54557;SDS011;40452;50.080;20.040;2023-05-10T14:17:42;3.50;;;1.80;;
54557;SDS011;40452;50.080;20.040;2023-05-10T14:20:07;3.35;;;1.73;;
54557;SDS011;40452;50.080;20.040;2023-05-10T14:22:33;3.90;;;2.10;;
54557;SDS011;40452;50.080;20.040;2023-05-10T14:24:59;4.00;;;2.03;;
54557;SDS011;40452;50.080;20.040;2023-05-10T14:27:25;3.20;;;1.80;;
54557;SDS011;40452;50.080;20.040;2023-05-10T14:29:51;4.45;;;2.00;;
54557;SDS011;40452;50.080;20.040;2023-05-10T14:32:18;4.03;;;1.80;;
54557;SDS011;40452;50.080;20.040;2023-05-10T14:34:43;4.75;;;1.90;;
54557;SDS011;40452;50.080;20.040;2023-05-10T14:37:13;2.95;;;1.80;;
54557;SDS011;40452;50.080;20.040;2023-05-10T14:39:38;5.50;;;2.08;;
54557;SDS011;40452;50.080;20.040;2023-05-10T14:42:04;3.67;;;1.85;;
54557;SDS011;40452;50.080;20.040;2023-05-10T14:44:30;3.10;;;1.85;;
54557;SDS011;40452;50.080;20.040;2023-05-10T14:46:56;4.85;;;1.85;;
54557;SDS011;40452;50.080;20.040;2023-05-10T14:49:22;6.15;;;1.77;;
54557;SDS011;40452;50.080;20.040;2023-05-10T14:51:50;4.30;;;1.50;;
54557;SDS011;40452;50.080;20.040;2023-05-10T14:54:16;4.25;;;1.70;;
54557;SDS011;40452;50.080;20.040;2023-05-10T14:56:42;7.72;;;1.75;;
54557;SDS011;40452;50.080;20.040;2023-05-10T14:59:07;4.38;;;1.52;;
54557;SDS011;40452;50.080;20.040;2023-05-10T15:01:33;7.57;;;2.00;;
54557;SDS011;40452;50.080;20.040;2023-05-10T15:04:02;4.40;;;2.00;;
54557;SDS011;40452;50.080;20.040;2023-05-10T15:06:31;4.68;;;1.85;;
54557;SDS011;40452;50.080;20.040;2023-05-10T15:08:57;5.50;;;1.65;;
54557;SDS011;40452;50.080;20.040;2023-05-10T15:11:23;5.25;;;1.70;;
54557;SDS011;40452;50.080;20.040;2023-05-10T15:13:48;4.60;;;2.40;;
54557;SDS011;40452;50.080;20.040;2023-05-10T15:16:14;3.30;;;2.20;;
54557;SDS011;40452;50.080;20.040;2023-05-10T15:18:40;7.85;;;2.65;;
54557;SDS011;40452;50.080;20.040;2023-05-10T15:21:05;4.63;;;2.50;;
54557;SDS011;40452;50.080;20.040;2023-05-10T15:23:31;6.60;;;2.67;;
54557;SDS011;40452;50.080;20.040;2023-05-10T15:25:57;8.63;;;2.60;;
54557;SDS011;40452;50.080;20.040;2023-05-10T15:28:22;6.30;;;2.63;;
54557;SDS011;40452;50.080;20.040;2023-05-10T15:30:48;6.72;;;2.67;;
54557;SDS011;40452;50.080;20.040;2023-05-10T15:33:14;5.72;;;2.90;;
54557;SDS011;40452;50.080;20.040;2023-05-10T15:35:39;6.38;;;2.42;;
54557;SDS011;40452;50.080;20.040;2023-05-10T15:38:06;6.78;;;2.88;;
54557;SDS011;40452;50.080;20.040;2023-05-10T15:40:32;6.50;;;2.40;;
54557;SDS011;40452;50.080;20.040;2023-05-10T15:42:57;7.38;;;2.97;;
54557;SDS011;40452;50.080;20.040;2023-05-10T15:45:23;6.15;;;2.33;;
54557;SDS011;40452;50.080;20.040;2023-05-10T15:47:48;5.10;;;2.70;;
54557;SDS011;40452;50.080;20.040;2023-05-10T15:50:14;4.40;;;2.65;;
54557;SDS011;40452;50.080;20.040;2023-05-10T15:52:41;8.40;;;2.80;;
54557;SDS011;40452;50.080;20.040;2023-05-10T15:55:07;6.85;;;2.35;;
54557;SDS011;40452;50.080;20.040;2023-05-10T15:57:37;5.87;;;2.60;;
54557;SDS011;40452;50.080;20.040;2023-05-10T16:00:03;5.43;;;2.45;;
54557;SDS011;40452;50.080;20.040;2023-05-10T16:02:30;3.72;;;2.35;;
54557;SDS011;40452;50.080;20.040;2023-05-10T16:05:03;3.97;;;2.30;;
54557;SDS011;40452;50.080;20.040;2023-05-10T16:07:29;4.47;;;2.50;;
54557;SDS011;40452;50.080;20.040;2023-05-10T16:09:54;5.93;;;2.42;;
54557;SDS011;40452;50.080;20.040;2023-05-10T16:12:20;5.43;;;2.40;;
54557;SDS011;40452;50.080;20.040;2023-05-10T16:14:46;3.53;;;2.05;;
54557;SDS011;40452;50.080;20.040;2023-05-10T16:17:11;3.33;;;2.08;;
54557;SDS011;40452;50.080;20.040;2023-05-10T16:19:39;7.60;;;3.05;;
54557;SDS011;40452;50.080;20.040;2023-05-10T16:22:05;5.32;;;2.20;;
54557;SDS011;40452;50.080;20.040;2023-05-10T16:24:30;4.95;;;2.50;;
54557;SDS011;40452;50.080;20.040;2023-05-10T16:26:56;5.13;;;2.58;;
54557;SDS011;40452;50.080;20.040;2023-05-10T16:29:22;4.00;;;2.38;;
54557;SDS011;40452;50.080;20.040;2023-05-10T16:31:47;6.03;;;2.30;;
54557;SDS011;40452;50.080;20.040;2023-05-10T16:34:13;3.17;;;2.20;;
54557;SDS011;40452;50.080;20.040;2023-05-10T16:36:38;5.07;;;2.28;;
54557;SDS011;40452;50.080;20.040;2023-05-10T16:39:04;4.20;;;2.40;;
54557;SDS011;40452;50.080;20.040;2023-05-10T16:41:32;5.88;;;2.58;;
54557;SDS011;40452;50.080;20.040;2023-05-10T16:43:58;4.05;;;2.33;;
54557;SDS011;40452;50.080;20.040;2023-05-10T16:46:24;4.55;;;2.50;;
54557;SDS011;40452;50.080;20.040;2023-05-10T16:48:50;4.88;;;2.58;;
54557;SDS011;40452;50.080;20.040;2023-05-10T16:51:15;5.28;;;2.30;;
54557;SDS011;40452;50.080;20.040;2023-05-10T16:53:41;4.43;;;2.20;;
54557;SDS011;40452;50.080;20.040;2023-05-10T16:56:06;9.60;;;2.90;;
54557;SDS011;40452;50.080;20.040;2023-05-10T16:58:32;7.25;;;2.17;;
54557;SDS011;40452;50.080;20.040;2023-05-10T17:00:58;3.95;;;2.25;;
54557;SDS011;40452;50.080;20.040;2023-05-10T17:03:24;5.47;;;2.25;;
54557;SDS011;40452;50.080;20.040;2023-05-10T17:05:49;4.03;;;2.08;;
54557;SDS011;40452;50.080;20.040;2023-05-10T17:08:15;4.15;;;2.00;;
54557;SDS011;40452;50.080;20.040;2023-05-10T17:10:41;4.88;;;2.20;;
54557;SDS011;40452;50.080;20.040;2023-05-10T17:13:06;4.20;;;2.33;;
54557;SDS011;40452;50.080;20.040;2023-05-10T17:15:34;5.88;;;2.30;;
54557;SDS011;40452;50.080;20.040;2023-05-10T17:18:01;4.88;;;2.30;;
54557;SDS011;40452;50.080;20.040;2023-05-10T17:20:27;3.17;;;2.20;;
54557;SDS011;40452;50.080;20.040;2023-05-10T17:22:52;4.55;;;2.50;;
54557;SDS011;40452;50.080;20.040;2023-05-10T17:25:18;5.60;;;2.20;;
54557;SDS011;40452;50.080;20.040;2023-05-10T17:27:46;8.07;;;2.40;;
54557;SDS011;40452;50.080;20.040;2023-05-10T17:30:12;5.32;;;2.03;;
54557;SDS011;40452;50.080;20.040;2023-05-10T17:32:38;5.85;;;2.50;;
54557;SDS011;40452;50.080;20.040;2023-05-10T17:35:04;8.73;;;2.42;;
54557;SDS011;40452;50.080;20.040;2023-05-10T17:37:30;7.50;;;2.20;;
54557;SDS011;40452;50.080;20.040;2023-05-10T17:40:00;6.20;;;2.25;;
54557;SDS011;40452;50.080;20.040;2023-05-10T17:42:27;8.32;;;2.50;;
54557;SDS011;40452;50.080;20.040;2023-05-10T17:44:52;11.20;;;2.60;;
54557;SDS011;40452;50.080;20.040;2023-05-10T17:47:18;11.98;;;2.95;;
54557;SDS011;40452;50.080;20.040;2023-05-10T17:49:44;15.70;;;2.95;;
54557;SDS011;40452;50.080;20.040;2023-05-10T17:52:10;9.57;;;3.70;;
54557;SDS011;40452;50.080;20.040;2023-05-10T17:54:35;10.23;;;3.00;;
54557;SDS011;40452;50.080;20.040;2023-05-10T17:57:03;15.43;;;3.67;;
54557;SDS011;40452;50.080;20.040;2023-05-10T17:59:29;10.52;;;3.17;;
54557;SDS011;40452;50.080;20.040;2023-05-10T18:01:54;9.70;;;4.00;;
54557;SDS011;40452;50.080;20.040;2023-05-10T18:04:20;10.82;;;3.72;;
54557;SDS011;40452;50.080;20.040;2023-05-10T18:06:45;10.10;;;3.67;;
54557;SDS011;40452;50.080;20.040;2023-05-10T18:09:11;15.65;;;3.58;;
54557;SDS011;40452;50.080;20.040;2023-05-10T18:11:37;13.90;;;3.58;;
54557;SDS011;40452;50.080;20.040;2023-05-10T18:14:03;13.70;;;3.78;;
54557;SDS011;40452;50.080;20.040;2023-05-10T18:16:29;14.65;;;3.85;;
54557;SDS011;40452;50.080;20.040;2023-05-10T18:18:54;14.63;;;3.25;;
54557;SDS011;40452;50.080;20.040;2023-05-10T18:21:21;12.02;;;3.72;;
54557;SDS011;40452;50.080;20.040;2023-05-10T18:23:46;8.57;;;3.40;;
54557;SDS011;40452;50.080;20.040;2023-05-10T18:26:12;12.25;;;3.13;;
54557;SDS011;40452;50.080;20.040;2023-05-10T18:28:38;10.10;;;3.25;;
54557;SDS011;40452;50.080;20.040;2023-05-10T18:31:03;13.02;;;3.35;;
54557;SDS011;40452;50.080;20.040;2023-05-10T18:33:29;11.70;;;3.00;;
54557;SDS011;40452;50.080;20.040;2023-05-10T18:35:54;12.50;;;3.78;;
54557;SDS011;40452;50.080;20.040;2023-05-10T18:38:20;9.55;;;3.10;;
54557;SDS011;40452;50.080;20.040;2023-05-10T18:40:46;17.15;;;3.10;;
54557;SDS011;40452;50.080;20.040;2023-05-10T18:43:11;14.77;;;3.20;;
54557;SDS011;40452;50.080;20.040;2023-05-10T18:45:37;11.23;;;3.50;;
54557;SDS011;40452;50.080;20.040;2023-05-10T18:48:03;11.25;;;3.50;;
54557;SDS011;40452;50.080;20.040;2023-05-10T18:50:29;8.63;;;3.33;;
54557;SDS011;40452;50.080;20.040;2023-05-10T18:52:55;13.13;;;3.30;;
54557;SDS011;40452;50.080;20.040;2023-05-10T18:55:20;8.30;;;3.30;;
54557;SDS011;40452;50.080;20.040;2023-05-10T18:57:49;8.13;;;3.00;;
54557;SDS011;40452;50.080;20.040;2023-05-10T19:00:15;11.35;;;3.55;;
54557;SDS011;40452;50.080;20.040;2023-05-10T19:02:42;8.73;;;3.58;;
54557;SDS011;40452;50.080;20.040;2023-05-10T19:05:08;12.32;;;3.65;;
54557;SDS011;40452;50.080;20.040;2023-05-10T19:07:34;9.98;;;3.33;;
54557;SDS011;40452;50.080;20.040;2023-05-10T19:09:59;6.75;;;2.92;;
54557;SDS011;40452;50.080;20.040;2023-05-10T19:12:25;11.20;;;2.92;;
54557;SDS011;40452;50.080;20.040;2023-05-10T19:14:50;10.75;;;2.70;;
54557;SDS011;40452;50.080;20.040;2023-05-10T19:17:16;9.18;;;3.30;;
54557;SDS011;40452;50.080;20.040;2023-05-10T19:19:42;11.60;;;3.30;;
54557;SDS011;40452;50.080;20.040;2023-05-10T19:22:07;10.63;;;3.40;;
54557;SDS011;40452;50.080;20.040;2023-05-10T19:24:33;7.20;;;2.90;;
54557;SDS011;40452;50.080;20.040;2023-05-10T19:26:59;14.73;;;3.20;;
54557;SDS011;40452;50.080;20.040;2023-05-10T19:29:25;6.15;;;2.97;;
54557;SDS011;40452;50.080;20.040;2023-05-10T19:31:51;5.70;;;2.85;;
54557;SDS011;40452;50.080;20.040;2023-05-10T19:34:17;9.57;;;3.30;;
54557;SDS011;40452;50.080;20.040;2023-05-10T19:36:42;4.72;;;2.90;;
54557;SDS011;40452;50.080;20.040;2023-05-10T19:39:08;6.97;;;2.83;;
54557;SDS011;40452;50.080;20.040;2023-05-10T19:41:34;7.63;;;3.10;;
54557;SDS011;40452;50.080;20.040;2023-05-10T19:44:00;6.85;;;3.28;;
54557;SDS011;40452;50.080;20.040;2023-05-10T19:46:25;10.43;;;3.20;;
54557;SDS011;40452;50.080;20.040;2023-05-10T19:48:51;9.27;;;3.42;;
54557;SDS011;40452;50.080;20.040;2023-05-10T19:51:16;7.45;;;3.03;;
54557;SDS011;40452;50.080;20.040;2023-05-10T19:53:42;7.07;;;3.30;;
54557;SDS011;40452;50.080;20.040;2023-05-10T19:56:08;4.47;;;2.53;;
54557;SDS011;40452;50.080;20.040;2023-05-10T19:58:36;6.10;;;3.17;;
54557;SDS011;40452;50.080;20.040;2023-05-10T20:01:02;6.80;;;3.28;;
54557;SDS011;40452;50.080;20.040;2023-05-10T20:03:29;8.10;;;2.90;;
54557;SDS011;40452;50.080;20.040;2023-05-10T20:05:55;12.65;;;3.38;;
54557;SDS011;40452;50.080;20.040;2023-05-10T20:08:20;6.72;;;3.33;;
54557;SDS011;40452;50.080;20.040;2023-05-10T20:10:46;9.68;;;3.22;;
54557;SDS011;40452;50.080;20.040;2023-05-10T20:13:11;6.03;;;3.20;;
54557;SDS011;40452;50.080;20.040;2023-05-10T20:15:37;10.27;;;3.47;;
54557;SDS011;40452;50.080;20.040;2023-05-10T20:18:02;4.65;;;2.80;;
54557;SDS011;40452;50.080;20.040;2023-05-10T20:20:28;11.02;;;3.30;;
54557;SDS011;40452;50.080;20.040;2023-05-10T20:22:54;8.68;;;3.47;;
54557;SDS011;40452;50.080;20.040;2023-05-10T20:25:19;5.97;;;3.08;;
54557;SDS011;40452;50.080;20.040;2023-05-10T20:27:45;6.63;;;3.10;;
54557;SDS011;40452;50.080;20.040;2023-05-10T20:30:10;7.18;;;3.05;;
54557;SDS011;40452;50.080;20.040;2023-05-10T20:32:36;6.55;;;3.08;;
54557;SDS011;40452;50.080;20.040;2023-05-10T20:35:03;7.97;;;3.17;;
54557;SDS011;40452;50.080;20.040;2023-05-10T20:37:29;5.63;;;3.45;;
54557;SDS011;40452;50.080;20.040;2023-05-10T20:39:55;6.03;;;3.17;;
54557;SDS011;40452;50.080;20.040;2023-05-10T20:42:20;4.45;;;3.22;;
54557;SDS011;40452;50.080;20.040;2023-05-10T20:44:46;8.25;;;3.55;;
54557;SDS011;40452;50.080;20.040;2023-05-10T20:47:15;6.00;;;3.03;;
54557;SDS011;40452;50.080;20.040;2023-05-10T20:49:41;5.85;;;3.20;;
54557;SDS011;40452;50.080;20.040;2023-05-10T20:52:06;6.18;;;3.13;;
54557;SDS011;40452;50.080;20.040;2023-05-10T20:54:32;8.65;;;3.50;;
54557;SDS011;40452;50.080;20.040;2023-05-10T20:56:58;7.47;;;3.50;;
54557;SDS011;40452;50.080;20.040;2023-05-10T20:59:25;4.43;;;3.17;;
54557;SDS011;40452;50.080;20.040;2023-05-10T21:01:51;6.07;;;3.00;;
54557;SDS011;40452;50.080;20.040;2023-05-10T21:04:17;7.47;;;3.30;;
54557;SDS011;40452;50.080;20.040;2023-05-10T21:06:42;5.93;;;3.20;;
54557;SDS011;40452;50.080;20.040;2023-05-10T21:09:09;9.15;;;3.30;;
54557;SDS011;40452;50.080;20.040;2023-05-10T21:11:35;7.53;;;3.55;;
54557;SDS011;40452;50.080;20.040;2023-05-10T21:14:02;5.38;;;2.85;;
54557;SDS011;40452;50.080;20.040;2023-05-10T21:16:28;11.65;;;3.83;;
54557;SDS011;40452;50.080;20.040;2023-05-10T21:18:53;9.70;;;3.22;;
54557;SDS011;40452;50.080;20.040;2023-05-10T21:21:19;5.50;;;2.92;;
